logo
Search for airport 
image banner adimage banner adimage banner ad
image banner ad

YFLI - Flinders Island

Located in Watermark, Australia

ICAO - YFLI, IATA - FLS

Data provided by Airmate  

General information

Coordinates: S40°5'39" E147°59'38"
Elevation is 34 feet MSL.
Magnetic variation is 14° East
View others Airports in Tasmania

Operational data

Special qualification required
Current time UTC:
Current local time:
Weather at : - ( 0 km )
METAR: PATQ 131611Z AUTO 21010KT 1SM -SN BR BKN021 OVC028 M18/M21 A2977 RMK AO2 P0000 FZRANO TSNO
View NOTAMs / SUP AIP / TFR affecting this airport [VIEW]
Communications frequencies: [VIEW]

Runways:

RWY identifierQFULength (ft)Width (ft)SurfaceLDA (ft)
0561°351098B
23241°351098B
14144°564398X
32324°564398X

Airport contact information

Address: Watermark Australia

Other aviation service providers

Aviation club (not for profit)

Flinders Island Aviation

Flinders Island Aviation
flindersislandaviation@bigpond.com+61363593641
+61400734605

Satellite view of YFLI